Time;durP1;ratioP1;P1;durP2;ratioP2;P2;SDS_P1;SDS_P2;PMS_P1;PMS_P2;Temp;Humidity;BMP_temperature;BMP_pressure;BME280_temperature;BME280_humidity;BME280_pressure;Samples;Min_cycle;Max_cycle;Signal;HPM_P1;HPM_P2
2023/12/05 00:01:35;;;;;;;;;64.00;48.00;;;;;-143.90;100.00;77045.72;4934371;28;101850;-72
2023/12/05 00:04:01;;;;;;;;;58.75;47.50;;;;;-143.90;100.00;77043.66;4931151;28;103694;-72
2023/12/05 00:06:28;;;;;;;;;69.75;51.25;;;;;-143.90;100.00;77031.25;4931962;28;102704;-73
2023/12/05 00:08:55;;;;;;;;;72.75;56.50;;;;;-143.90;100.00;77031.25;4931058;28;101616;-72
2023/12/05 00:11:21;;;;;;;;;71.00;58.00;;;;;-143.90;100.00;77025.03;4932550;28;101693;-72
2023/12/05 00:13:48;;;;;;;;;63.75;50.50;;;;;-143.90;100.00;77014.69;4930138;28;104014;-73
2023/12/05 00:16:15;;;;;;;;;61.50;46.50;;;;;-143.90;100.00;77004.34;4932245;28;101904;-71
2023/12/05 00:18:44;;;;;;;;;73.50;55.50;;;;;-143.90;100.00;77010.56;4933969;28;102139;-71
2023/12/05 00:21:11;;;;;;;;;59.50;49.00;;;;;-143.90;100.00;77004.34;4934399;28;101578;-74
2023/12/05 00:23:38;;;;;;;;;49.50;42.25;;;;;-143.90;100.00;77004.34;4932539;28;107495;-71
2023/12/05 00:26:05;;;;;;;;;58.00;45.00;;;;;-143.90;100.00;77002.28;4930499;28;102848;-72
2023/12/05 00:28:32;;;;;;;;;27.75;14.75;;;;;-143.90;100.00;77006.41;4931350;28;101785;-72
2023/12/05 00:30:58;;;;;;;;;62.75;49.00;;;;;-143.90;100.00;77010.56;4928268;28;101886;-72
2023/12/05 00:33:25;;;;;;;;;77.00;64.00;;;;;-143.90;100.00;77020.91;4931367;28;103545;-72
2023/12/05 00:35:52;;;;;;;;;60.50;48.50;;;;;-143.90;100.00;77010.56;4930946;28;101834;-71
2023/12/05 00:38:18;;;;;;;;;49.50;40.75;;;;;-143.90;100.00;77000.22;4931586;28;101636;-71
2023/12/05 00:40:45;;;;;;;;;52.00;37.25;;;;;-143.90;100.00;77002.28;4931830;28;101555;-72
2023/12/05 00:43:12;;;;;;;;;32.75;26.00;;;;;-143.90;100.00;77000.22;4932034;28;103623;-72
2023/12/05 00:45:39;;;;;;;;;37.00;32.75;;;;;-143.90;100.00;77008.50;4932290;28;101950;-72
2023/12/05 00:48:05;;;;;;;;;35.33;26.67;;;;;-143.90;100.00;77016.75;4928981;28;101745;-71
2023/12/05 00:50:32;;;;;;;;;42.75;36.75;;;;;-143.90;100.00;77022.97;4932730;28;101925;-72
2023/12/05 00:53:09;;;;;;;;;38.75;22.75;;;;;-143.90;100.00;77022.97;4930739;28;107946;-73
2023/12/05 00:55:35;;;;;;;;;29.00;20.33;;;;;-143.90;100.00;77035.38;4931636;28;101758;-72
2023/12/05 00:58:02;;;;;;;;;37.00;30.67;;;;;-143.90;100.00;77031.25;4929334;28;102696;-73
2023/12/05 01:00:28;;;;;;;;;36.00;30.67;;;;;-143.90;100.00;77025.03;4933336;28;102166;-73
2023/12/05 01:02:56;;;;;;;;;22.33;21.00;;;;;-143.90;100.00;77020.91;4929418;28;103510;-71
2023/12/05 01:05:22;;;;;;;;;30.50;23.50;;;;;-143.90;100.00;77022.97;4931371;28;103227;-71
2023/12/05 01:07:49;;;;;;;;;34.00;26.33;;;;;-143.90;100.00;77029.19;4931669;28;102811;-71
2023/12/05 01:10:16;;;;;;;;;39.33;26.33;;;;;-143.90;100.00;77022.97;4932320;28;101666;-71
2023/12/05 01:12:43;;;;;;;;;27.75;24.25;;;;;-143.90;100.00;77020.91;4930851;28;103547;-72
2023/12/05 01:15:09;;;;;;;;;39.50;34.25;;;;;-143.90;100.00;77020.91;4933070;28;101928;-72
2023/12/05 01:17:36;;;;;;;;;29.00;18.00;;;;;-143.90;100.00;77014.69;4931370;28;101785;-72
2023/12/05 01:20:07;;;;;;;;;34.00;30.25;;;;;-143.90;100.00;77012.63;4930491;28;102410;-72
2023/12/05 01:22:34;;;;;;;;;39.75;29.00;;;;;-143.90;100.00;77016.75;4930043;28;103340;-72
2023/12/05 01:25:01;;;;;;;;;30.33;22.00;;;;;-143.90;100.00;77012.63;4930146;28;102016;-72
2023/12/05 01:27:27;;;;;;;;;26.33;24.33;;;;;-143.90;100.00;77002.28;4931020;28;103191;-72
2023/12/05 01:29:54;;;;;;;;;28.33;26.00;;;;;-143.90;100.00;77002.28;4931356;28;101614;-72
2023/12/05 01:32:21;;;;;;;;;26.67;22.67;;;;;-143.90;100.00;77000.22;4927823;28;102283;-72
2023/12/05 01:34:47;;;;;;;;;24.00;21.67;;;;;-143.90;100.00;77020.91;4927873;28;103380;-72
2023/12/05 01:37:14;;;;;;;;;22.67;19.67;;;;;-143.90;100.00;77018.84;4929393;28;102701;-70
2023/12/05 01:39:41;;;;;;;;;18.67;12.00;;;;;-143.90;100.00;77025.03;4933441;28;101906;-72
2023/12/05 01:42:07;;;;;;;;;25.00;24.33;;;;;-143.90;100.00;77041.59;4928469;28;108155;-73
2023/12/05 01:44:34;;;;;;;;;23.50;19.00;;;;;-143.90;100.00;77051.94;4930542;28;101798;-72
2023/12/05 01:47:01;;;;;;;;;24.33;18.33;;;;;-143.90;100.00;77049.84;4928044;28;101759;-72
2023/12/05 01:49:28;;;;;;;;;25.67;18.33;;;;;-143.90;100.00;77041.59;4930232;28;102086;-72
2023/12/05 01:51:57;;;;;;;;;37.25;28.25;;;;;-143.90;100.00;77045.72;4927883;28;104049;-72
2023/12/05 01:54:25;;;;;;;;;27.50;23.00;;;;;-143.90;100.00;77037.44;4926718;28;101930;-73
2023/12/05 01:56:55;;;;;;;;;42.50;33.75;;;;;-143.90;100.00;77033.31;4925786;28;102060;-72
2023/12/05 01:59:22;;;;;;;;;50.50;40.75;;;;;-143.90;100.00;77035.38;4930411;28;102465;-72
2023/12/05 02:01:49;;;;;;;;;41.25;40.75;;;;;-143.90;100.00;77033.31;4925319;28;103358;-72
2023/12/05 02:04:16;;;;;;;;;46.25;37.50;;;;;-143.90;100.00;77027.09;4928125;28;102715;-72
2023/12/05 02:06:43;;;;;;;;;50.75;41.50;;;;;-143.90;100.00;77033.31;4927074;28;101665;-72
2023/12/05 02:09:13;;;;;;;;;45.50;35.00;;;;;-143.90;100.00;77041.59;4932720;28;101571;-72
2023/12/05 02:11:41;;;;;;;;;34.00;28.50;;;;;-143.90;100.00;77033.31;4926019;28;107594;-73
2023/12/05 02:14:09;;;;;;;;;27.25;25.25;;;;;-143.90;100.00;77033.31;4929176;28;102121;-73
2023/12/05 02:16:55;;;;;;;;;38.25;31.25;;;;;-143.90;100.00;77049.84;4928088;28;101575;-73
2023/12/05 02:19:42;;;;;;;;;31.25;27.00;;;;;-143.90;100.00;77068.47;4929380;28;101611;-73
2023/12/05 02:22:23;;;;;;;;;39.25;27.50;;;;;-143.90;100.00;77060.19;4928053;28;107821;-73
2023/12/05 02:25:11;;;;;;;;;40.25;30.00;;;;;-143.90;100.00;77066.41;4930399;28;101895;-73
2023/12/05 02:27:41;;;;;;;;;35.00;32.00;;;;;-143.90;100.00;77078.81;4929426;28;101688;-73
2023/12/05 02:30:09;;;;;;;;;26.75;22.50;;;;;-143.90;100.00;77085.03;4928838;28;102167;-73
2023/12/05 02:32:36;;;;;;;;;35.75;29.50;;;;;-143.90;100.00;77105.69;4928198;28;104241;-72
2023/12/05 02:35:05;;;;;;;;;33.75;29.50;;;;;-143.90;100.00;77105.69;4928552;28;102186;-72
2023/12/05 02:37:43;;;;;;;;;40.75;29.50;;;;;-143.90;100.00;77105.69;4929793;28;101910;-73
2023/12/05 02:40:28;;;;;;;;;30.50;24.00;;;;;-143.90;100.00;77105.69;4929806;28;101801;-73
2023/12/05 02:42:57;;;;;;;;;24.33;18.33;;;;;-143.90;100.00;77107.78;4926669;28;108045;-72
2023/12/05 02:45:28;;;;;;;;;29.50;21.00;;;;;-143.90;100.00;77113.97;4928959;28;102207;-72
2023/12/05 02:47:56;;;;;;;;;39.25;35.00;;;;;-143.90;100.00;77132.59;4927963;28;102622;-72
2023/12/05 02:50:23;;;;;;;;;34.25;29.00;;;;;-143.90;100.00;77128.47;4946059;28;104638;-72
2023/12/05 02:52:49;;;;;;;;;41.00;31.50;;;;;-143.90;100.00;77134.66;4928878;28;103444;-72
2023/12/05 02:55:16;;;;;;;;;42.75;38.50;;;;;-143.90;100.00;77159.47;4931991;28;102683;-73
2023/12/05 02:57:43;;;;;;;;;44.25;36.00;;;;;-143.90;100.00;77188.44;4934003;28;101802;-72
2023/12/05 03:00:11;;;;;;;;;62.75;45.25;;;;;-143.90;100.00;77198.78;4935031;28;101736;-72
2023/12/05 03:02:37;;;;;;;;;39.25;36.50;;;;;-143.90;100.00;77194.66;4933095;28;103381;-72
2023/12/05 03:05:05;;;;;;;;;51.25;43.25;;;;;-143.90;100.00;77190.50;4932689;28;102096;-72
2023/12/05 03:07:32;;;;;;;;;48.75;39.00;;;;;-143.90;100.00;77182.22;4931115;28;103039;-72
2023/12/05 03:09:58;;;;;;;;;37.50;27.25;;;;;-143.90;100.00;77165.69;4932035;28;102916;-73
2023/12/05 03:12:25;;;;;;;;;38.00;30.50;;;;;-143.90;100.00;77165.69;4930577;28;103446;-72
2023/12/05 03:14:52;;;;;;;;;52.25;42.00;;;;;-143.90;100.00;77171.91;4933120;28;101798;-72
2023/12/05 03:17:18;;;;;;;;;49.50;36.00;;;;;-143.90;100.00;77153.28;4932246;28;101825;-72
2023/12/05 03:19:45;;;;;;;;;41.00;29.75;;;;;-143.90;100.00;77140.88;4933831;28;102487;-71
2023/12/05 03:22:12;;;;;;;;;32.75;31.25;;;;;-143.90;100.00;77132.59;4933715;28;103517;-72
2023/12/05 03:24:39;;;;;;;;;30.25;27.25;;;;;-143.90;100.00;77120.19;4932041;28;102535;-73
2023/12/05 03:27:05;;;;;;;;;48.50;36.25;;;;;-143.90;100.00;77107.78;4931302;28;101858;-73
2023/12/05 03:29:33;;;;;;;;;43.50;36.00;;;;;-143.90;100.00;77099.50;4933253;28;101718;-73
2023/12/05 03:32:01;;;;;;;;;42.00;26.75;;;;;-143.90;100.00;77085.03;4933480;28;103364;-72
2023/12/05 03:34:27;;;;;;;;;40.00;33.50;;;;;-143.90;100.00;77080.88;4928774;28;102129;-73
2023/12/05 03:36:54;;;;;;;;;56.75;39.50;;;;;-143.90;100.00;77066.41;4929803;28;102657;-72
2023/12/05 03:39:21;;;;;;;;;41.00;35.00;;;;;-143.90;100.00;77049.84;4934388;28;101719;-72
2023/12/05 03:41:48;;;;;;;;;29.50;23.00;;;;;-143.90;100.00;77035.38;4944435;28;106985;-72
2023/12/05 03:44:14;;;;;;;;;35.75;29.00;;;;;-143.90;100.00;77039.50;4932160;28;101844;-71
2023/12/05 03:46:41;;;;;;;;;33.50;29.75;;;;;-143.90;100.00;77029.19;4933963;28;101956;-73
2023/12/05 03:49:08;;;;;;;;;35.00;24.75;;;;;-143.90;100.00;77022.97;4925687;28;102532;-73
2023/12/05 03:51:34;;;;;;;;;28.50;26.50;;;;;-143.90;100.00;77020.91;4923606;28;103408;-73
2023/12/05 03:54:01;;;;;;;;;32.50;25.75;;;;;-143.90;100.00;77006.41;4946690;28;101919;-73
2023/12/05 03:56:28;;;;;;;;;32.00;28.50;;;;;-143.90;100.00;77006.41;4929127;28;102714;-73
2023/12/05 03:58:54;;;;;;;;;29.75;24.75;;;;;-143.90;100.00;77000.22;4932553;28;102026;-73
2023/12/05 04:01:21;;;;;;;;;29.50;24.50;;;;;-143.90;100.00;76983.66;4932015;28;103474;-73
2023/12/05 04:03:47;;;;;;;;;24.00;19.50;;;;;-143.90;100.00;76975.41;4933201;28;101642;-72
2023/12/05 04:06:21;;;;;;;;;33.00;22.00;;;;;-143.90;100.00;76960.91;4930367;28;102011;-71
2023/12/05 04:08:49;;;;;;;;;28.00;24.25;;;;;-143.90;100.00;76960.91;4943135;28;101862;-70
2023/12/05 04:11:17;;;;;;;;;40.75;36.75;;;;;-143.90;100.00;76975.41;4931091;28;103738;-71
2023/12/05 04:13:43;;;;;;;;;46.25;39.00;;;;;-143.90;100.00;76983.66;4930036;28;101778;-71
2023/12/05 04:16:11;;;;;;;;;51.00;42.00;;;;;-143.90;100.00;76989.88;4932715;28;102786;-71
2023/12/05 04:18:37;;;;;;;;;54.75;42.25;;;;;-143.90;100.00;76991.94;4933678;28;102013;-72
2023/12/05 04:21:04;;;;;;;;;45.00;40.75;;;;;-143.90;100.00;76989.88;4933051;28;103554;-71
2023/12/05 04:23:31;;;;;;;;;47.75;41.50;;;;;-143.90;100.00;77008.50;4931724;28;101830;-72
2023/12/05 04:25:57;;;;;;;;;48.50;44.00;;;;;-143.90;100.00;77000.22;4925607;28;101676;-71
2023/12/05 04:28:24;;;;;;;;;46.25;38.50;;;;;-143.90;100.00;76998.16;4934367;28;102175;-71
2023/12/05 04:30:51;;;;;;;;;40.00;36.00;;;;;-143.90;100.00;76991.94;4932079;28;103584;-71
2023/12/05 04:33:17;;;;;;;;;37.00;33.75;;;;;-143.90;100.00;76983.66;4931442;28;102127;-71
2023/12/05 04:35:44;;;;;;;;;28.00;26.00;;;;;-143.90;100.00;76967.13;4932924;28;101911;-73
2023/12/05 04:38:11;;;;;;;;;27.25;21.75;;;;;-143.90;100.00;76969.19;4932789;28;101859;-72
2023/12/05 04:40:37;;;;;;;;;28.00;23.75;;;;;-143.90;100.00;76960.91;4930667;28;103304;-73
2023/12/05 04:43:04;;;;;;;;;39.50;32.00;;;;;-143.90;100.00;76967.13;4932135;28;102085;-72
2023/12/05 04:45:30;;;;;;;;;34.75;29.50;;;;;-143.90;100.00;76967.13;4943682;28;101881;-72
2023/12/05 04:47:57;;;;;;;;;39.50;30.75;;;;;-143.90;100.00;76956.78;4929435;28;101568;-72
2023/12/05 04:50:24;;;;;;;;;37.75;27.50;;;;;-143.90;100.00;76954.72;4930600;28;103364;-73
2023/12/05 04:52:50;;;;;;;;;18.67;18.33;;;;;-143.90;100.00;76950.56;4931797;28;102919;-73
2023/12/05 04:55:17;;;;;;;;;38.25;28.75;;;;;-143.90;100.00;76946.44;4932916;28;102012;-72
2023/12/05 04:57:43;;;;;;;;;49.50;38.75;;;;;-143.90;100.00;76946.44;4932861;28;101557;-72
2023/12/05 05:00:12;;;;;;;;;43.00;35.25;;;;;-143.90;100.00;76954.72;4932087;28;103390;-73
2023/12/05 05:02:39;;;;;;;;;33.00;27.50;;;;;-143.90;100.00;76952.66;4930394;28;101853;-72
2023/12/05 05:05:06;;;;;;;;;20.50;13.00;;;;;-143.90;100.00;76948.50;4927824;28;101948;-72
2023/12/05 05:07:33;;;;;;;;;27.00;23.75;;;;;-143.90;100.00;76946.44;4929305;28;102475;-72
2023/12/05 05:10:00;;;;;;;;;47.75;33.75;;;;;-143.90;100.00;76936.09;4931574;28;103429;-73
2023/12/05 05:12:27;;;;;;;;;45.75;36.50;;;;;-143.90;100.00;76942.31;4929980;28;106120;-73
2023/12/05 05:14:54;;;;;;;;;46.00;31.00;;;;;-143.90;100.00;76931.97;4931320;28;102215;-72
2023/12/05 05:17:21;;;;;;;;;39.25;32.25;;;;;-143.90;100.00;76936.09;4926918;28;101912;-72
2023/12/05 05:19:48;;;;;;;;;53.75;39.25;;;;;-143.90;100.00;76942.31;4929903;28;103471;-72
2023/12/05 05:22:15;;;;;;;;;38.25;32.00;;;;;-143.90;100.00;76938.16;4930071;28;101807;-72
2023/12/05 05:24:42;;;;;;;;;46.25;36.25;;;;;-143.90;100.00;76946.44;4930731;28;102596;-72
2023/12/05 05:27:08;;;;;;;;;38.50;32.50;;;;;-143.90;100.00;76938.16;4931358;28;103420;-73
2023/12/05 05:29:35;;;;;;;;;46.25;38.50;;;;;-143.90;100.00;76938.16;4930747;28;103408;-72
2023/12/05 05:32:01;;;;;;;;;37.25;22.00;;;;;-143.90;100.00;76948.50;4931095;28;101997;-72
2023/12/05 05:34:28;;;;;;;;;39.25;31.00;;;;;-143.90;100.00;76944.38;4928542;28;101676;-73
2023/12/05 05:36:55;;;;;;;;;60.00;41.75;;;;;-143.90;100.00;76946.44;4929971;28;101644;-72
2023/12/05 05:39:22;;;;;;;;;45.25;39.75;;;;;-143.90;100.00;76950.56;4928749;28;104321;-72
2023/12/05 05:41:49;;;;;;;;;47.50;41.00;;;;;-143.90;100.00;76958.84;4929401;28;102242;-72
2023/12/05 05:44:15;;;;;;;;;61.00;48.25;;;;;-143.90;100.00;76975.41;4929989;28;102236;-72
2023/12/05 05:46:42;;;;;;;;;48.50;41.50;;;;;-143.90;100.00;76956.78;4929755;28;102923;-73
2023/12/05 05:49:08;;;;;;;;;46.25;37.00;;;;;-143.90;100.00;76958.84;4927457;28;105032;-71
2023/12/05 05:51:35;;;;;;;;;39.75;35.50;;;;;-143.90;100.00;76956.78;4925513;28;102098;-74
2023/12/05 05:54:02;;;;;;;;;46.25;39.25;;;;;-143.90;100.00;76963.00;4926973;28;102653;-73
2023/12/05 05:56:28;;;;;;;;;37.00;29.75;;;;;-143.90;100.00;76950.56;4926432;28;102115;-72
2023/12/05 05:58:56;;;;;;;;;33.25;26.50;;;;;-143.90;100.00;76938.16;4925630;28;103346;-72
2023/12/05 06:01:22;;;;;;;;;40.50;28.50;;;;;-143.90;100.00;76942.31;4919640;28;102566;-72
2023/12/05 06:03:49;;;;;;;;;25.50;25.50;;;;;-143.90;100.00;76946.44;4921875;28;101843;-71
2023/12/05 06:06:16;;;;;;;;;35.50;28.75;;;;;-143.90;100.00;76934.03;4926084;28;103275;-71
2023/12/05 06:08:43;;;;;;;;;48.25;42.25;;;;;-143.90;100.00;76958.84;4923463;28;103780;-71
2023/12/05 06:11:09;;;;;;;;;36.25;34.75;;;;;-143.90;100.00;76956.78;4923278;28;103064;-71
2023/12/05 06:13:36;;;;;;;;;53.25;45.50;;;;;-143.90;100.00;76975.41;4925324;28;101697;-71
2023/12/05 06:16:03;;;;;;;;;39.75;35.00;;;;;-143.90;100.00;76973.31;4927193;28;101701;-71
2023/12/05 06:18:30;;;;;;;;;52.25;38.25;;;;;-143.90;100.00;76977.47;4926706;28;103455;-71
2023/12/05 06:20:57;;;;;;;;;27.25;25.50;;;;;-143.90;100.00;76963.00;4928204;28;101819;-72
2023/12/05 06:23:24;;;;;;;;;30.50;23.75;;;;;-143.90;100.00;76950.56;4930107;28;101785;-72
2023/12/05 06:25:51;;;;;;;;;39.00;30.25;;;;;-143.90;100.00;76950.56;4932040;28;101852;-72
2023/12/05 06:28:17;;;;;;;;;39.75;31.00;;;;;-143.90;100.00;76958.84;4932481;28;103891;-72
2023/12/05 06:30:44;;;;;;;;;46.75;40.50;;;;;-143.90;100.00;76963.00;4928912;28;101797;-72
2023/12/05 06:33:10;;;;;;;;;47.25;41.00;;;;;-143.90;100.00;76979.53;4928592;28;101627;-72
2023/12/05 06:35:37;;;;;;;;;41.00;31.75;;;;;-143.90;100.00;76971.25;4928214;28;101914;-72
2023/12/05 06:38:04;;;;;;;;;39.25;29.75;;;;;-143.90;100.00;76967.13;4929516;28;105209;-72
2023/12/05 06:40:30;;;;;;;;;31.00;23.25;;;;;-143.90;100.00;76954.72;4930111;28;102928;-72
2023/12/05 06:42:57;;;;;;;;;32.50;27.00;;;;;-143.90;100.00;76946.44;4929676;28;101811;-72
2023/12/05 06:45:24;;;;;;;;;22.67;20.33;;;;;-143.90;100.00;76931.97;4928237;28;101981;-72
2023/12/05 06:47:50;;;;;;;;;28.50;25.25;;;;;-143.90;100.00;76946.44;4928499;28;103484;-72
2023/12/05 06:50:17;;;;;;;;;33.00;22.00;;;;;-143.90;100.00;76936.09;4928603;28;101703;-72
2023/12/05 06:52:44;;;;;;;;;31.00;25.67;;;;;-143.90;100.00;76923.69;4927713;28;101916;-72
2023/12/05 06:55:10;;;;;;;;;19.67;19.33;;;;;-143.90;100.00;76921.63;4931286;28;102178;-73
2023/12/05 06:57:37;;;;;;;;;29.33;19.00;;;;;-143.90;100.00;76909.22;4926468;28;103342;-72
2023/12/05 07:00:04;;;;;;;;;22.33;14.67;;;;;-143.90;100.00;76917.47;4927457;28;101876;-72
2023/12/05 07:02:32;;;;;;;;;10.00;6.33;;;;;-143.90;100.00;76903.00;4926315;28;101648;-72
2023/12/05 07:04:59;;;;;;;;;21.00;15.00;;;;;-143.90;100.00;76892.66;4929843;28;106108;-72
2023/12/05 07:07:26;;;;;;;;;18.67;16.67;;;;;-143.90;100.00;76880.25;4925900;28;103668;-72
2023/12/05 07:09:52;;;;;;;;;21.33;12.00;;;;;-143.90;100.00;76876.13;4927815;28;101853;-72
2023/12/05 07:12:19;;;;;;;;;15.00;12.00;;;;;-143.90;100.00;76863.72;4927186;28;101618;-71
2023/12/05 07:14:46;;;;;;;;;14.67;14.67;;;;;-143.90;100.00;76859.56;4932224;28;102022;-73
2023/12/05 07:17:12;;;;;;;;;18.33;16.00;;;;;-143.90;100.00;76851.31;4928088;28;103512;-72
2023/12/05 07:19:39;;;;;;;;;21.00;16.00;;;;;-143.90;100.00;76851.31;4929598;28;103461;-72
2023/12/05 07:22:06;;;;;;;;;19.67;12.00;;;;;-143.90;100.00;76843.03;4928660;28;101580;-73
2023/12/05 07:24:33;;;;;;;;;25.00;21.00;;;;;-143.90;100.00;76830.63;4928193;28;101973;-72
2023/12/05 07:27:00;;;;;;;;;16.67;13.67;;;;;-143.90;100.00;76826.47;4928588;28;103325;-73
2023/12/05 07:29:26;;;;;;;;;15.00;13.67;;;;;-143.90;100.00;76820.28;4928620;28;102309;-73
2023/12/05 07:31:53;;;;;;;;;12.00;10.00;;;;;-143.90;100.00;76805.78;4928693;28;101539;-72
2023/12/05 07:34:21;;;;;;;;;15.33;10.00;;;;;-143.90;100.00;76793.38;4931172;28;102030;-73
2023/12/05 07:36:47;;;;;;;;;13.67;10.00;;;;;-143.90;100.00;76772.72;4945360;28;103093;-73
2023/12/05 07:39:14;;;;;;;;;15.67;12.33;;;;;-143.90;100.00;76772.72;4929152;28;102283;-72
2023/12/05 07:41:41;;;;;;;;;18.67;14.00;;;;;-143.90;100.00;76758.22;4928442;28;102219;-73
2023/12/05 07:44:09;;;;;;;;;17.00;14.00;;;;;-143.90;100.00;76747.88;4939681;28;101889;-73
2023/12/05 07:46:35;;;;;;;;;12.33;10.00;;;;;-143.90;100.00;76739.63;4930969;28;103410;-72
2023/12/05 07:49:02;;;;;;;;;34.33;29.33;;;;;-143.90;100.00;76733.41;4932015;28;102243;-73
2023/12/05 07:51:29;;;;;;;;;19.33;19.00;;;;;-143.90;100.00;76727.22;4933191;28;101713;-73
2023/12/05 07:53:56;;;;;;;;;27.67;25.00;;;;;-143.90;100.00;76735.47;4932255;28;101844;-73
2023/12/05 07:56:24;;;;;;;;;24.00;22.33;;;;;-143.90;100.00;76721.00;4932718;28;103375;-73
2023/12/05 07:58:50;;;;;;;;;32.00;23.67;;;;;-143.90;100.00;76721.00;4932324;28;101716;-73
2023/12/05 08:01:17;;;;;;;;;32.00;29.33;;;;;-143.90;100.00;76710.66;4935373;28;101823;-72
2023/12/05 08:03:44;;;;;;;;;35.33;26.00;;;;;-143.90;100.00;76710.66;4933955;28;101614;-73
2023/12/05 08:06:11;;;;;;;;;60.50;38.00;;;;;-143.90;100.00;76723.06;4928863;28;103461;-73
2023/12/05 08:08:38;;;;;;;;;35.00;31.33;;;;;-143.90;100.00;76706.53;4930142;28;101993;-73
2023/12/05 08:11:06;;;;;;;;;27.00;24.67;;;;;-143.90;100.00;76677.56;4928947;28;101586;-73
2023/12/05 08:13:32;;;;;;;;;26.33;23.33;;;;;-143.90;100.00;76665.16;4930331;28;101647;-73
2023/12/05 08:15:59;;;;;;;;;19.67;16.33;;;;;-143.90;100.00;76656.88;4930770;28;103369;-71
2023/12/05 08:18:26;;;;;;;;;25.67;23.33;;;;;-143.90;100.00;76646.53;4924074;28;101952;-72
2023/12/05 08:20:53;;;;;;;;;24.67;19.67;;;;;-143.90;99.72;76632.06;4927597;28;101739;-72
2023/12/05 08:23:20;;;;;;;;;33.33;21.67;;;;;-143.90;99.43;76617.59;4926479;28;107150;-72
2023/12/05 08:25:46;;;;;;;;;58.00;41.00;;;;;-143.90;98.64;76638.28;4928158;28;103503;-73
2023/12/05 08:28:13;;;;;;;;;47.67;37.00;;;;;-143.90;100.00;76627.94;4932679;28;101927;-73
2023/12/05 08:30:41;;;;;;;;;48.00;36.67;;;;;-143.90;99.77;76617.59;4932401;28;101497;-73
2023/12/05 08:33:09;;;;;;;;;40.67;31.33;;;;;-143.90;100.00;76613.47;4932669;28;101815;-73
2023/12/05 08:35:36;;;;;;;;;37.00;29.00;;;;;-143.90;100.00;76586.56;4927807;28;104400;-73
2023/12/05 08:38:02;;;;;;;;;39.67;33.67;;;;;-143.90;100.00;76580.38;4931267;28;102044;-72
2023/12/05 08:40:29;;;;;;;;;33.67;29.33;;;;;-143.90;100.00;76576.22;4932780;28;102048;-73
2023/12/05 08:42:56;;;;;;;;;52.33;40.00;;;;;-143.90;100.00;76570.03;4929402;28;101937;-73
2023/12/05 08:45:23;;;;;;;;;38.00;35.33;;;;;-143.90;100.00;76563.81;4931408;28;103585;-73
2023/12/05 08:47:53;;;;;;;;;83.50;58.00;;;;;-143.90;100.00;76553.47;4932811;28;102192;-73
2023/12/05 08:50:21;;;;;;;;;72.50;55.25;;;;;-143.90;100.00;76570.03;4931342;28;101496;-73
2023/12/05 08:52:48;;;;;;;;;75.75;57.75;;;;;-143.90;100.00;76565.88;4932502;28;101683;-73
2023/12/05 08:55:14;;;;;;;;;88.25;65.25;;;;;-143.90;100.00;76578.31;4931332;28;103517;-73
2023/12/05 08:57:41;;;;;;;;;87.50;59.25;;;;;-143.90;100.00;76555.53;4931248;28;102118;-73
2023/12/05 09:00:09;;;;;;;;;89.50;68.50;;;;;-143.90;100.00;76588.63;4945938;28;101755;-73
2023/12/05 09:02:35;;;;;;;;;80.75;58.25;;;;;-143.90;100.00;76570.03;4931575;28;101819;-73
2023/12/05 09:05:03;;;;;;;;;82.25;56.00;;;;;-143.90;100.00;76539.00;4929305;28;103576;-73
2023/12/05 09:07:30;;;;;;;;;68.25;53.00;;;;;-143.90;99.96;76543.13;4933266;28;106187;-73
2023/12/05 09:09:57;;;;;;;;;55.67;47.00;;;;;-143.90;99.98;76536.94;4933165;28;101621;-73
2023/12/05 09:12:24;;;;;;;;;66.75;54.00;;;;;-143.90;100.00;76570.03;4931690;28;101777;-74
2023/12/05 09:14:50;;;;;;;;;81.00;61.00;;;;;-143.90;100.00;76580.38;4931202;28;103511;-73
2023/12/05 09:17:18;;;;;;;;;72.50;54.25;;;;;-143.90;100.00;76567.97;4930826;28;101670;-73
2023/12/05 09:19:45;;;;;;;;;91.25;68.25;;;;;-143.90;100.00;76582.44;4929390;28;101625;-73
2023/12/05 09:22:12;;;;;;;;;82.50;58.50;;;;;-143.90;100.00;76561.75;4931959;28;101736;-73
2023/12/05 09:24:38;;;;;;;;;81.50;59.75;;;;;-143.90;100.00;76574.16;4926911;28;103396;-73
2023/12/05 09:27:05;;;;;;;;;87.50;61.75;;;;;-143.90;100.00;76586.56;4927116;28;101790;-73
2023/12/05 09:29:32;;;;;;;;;74.75;58.25;;;;;-143.90;100.00;76590.72;4929959;28;101711;-73
2023/12/05 09:31:59;;;;;;;;;62.00;47.75;;;;;-143.90;100.00;76584.50;4932115;28;101845;-73
2023/12/05 09:34:25;;;;;;;;;65.00;50.33;;;;;-143.90;100.00;76582.44;4928074;28;108371;-73
2023/12/05 09:36:52;;;;;;;;;65.75;48.00;;;;;-143.90;100.00;76563.81;4928372;28;101969;-73
2023/12/05 09:39:19;;;;;;;;;63.50;50.25;;;;;-143.90;100.00;76553.47;4929997;28;101592;-73
2023/12/05 09:41:52;;;;;;;;;58.25;48.75;;;;;-143.90;99.89;76549.34;4927614;28;101963;-73
2023/12/05 09:44:23;;;;;;;;;64.00;50.50;;;;;-143.90;98.99;76520.38;4927064;28;103388;-73
2023/12/05 09:46:54;;;;;;;;;66.00;51.50;;;;;-143.90;98.37;76499.72;4927564;28;101765;-73
2023/12/05 09:49:26;;;;;;;;;70.75;54.25;;;;;-143.90;98.55;76512.13;4923698;28;101736;-73
2023/12/05 09:51:54;;;;;;;;;53.00;46.50;;;;;-143.90;98.34;76499.72;4927441;28;101970;-74
2023/12/05 09:54:28;;;;;;;;;73.25;56.25;;;;;-143.90;97.97;76505.91;4928686;28;103374;-73
2023/12/05 09:56:55;;;;;;;;;73.25;54.50;;;;;-143.90;98.00;76501.78;4930647;28;102578;-73
2023/12/05 09:59:22;;;;;;;;;61.25;50.50;;;;;-143.90;97.61;76510.06;4929211;28;101844;-73
2023/12/05 10:01:52;;;;;;;;;54.00;44.25;;;;;-143.90;98.37;76507.97;4931728;28;102261;-74
2023/12/05 10:04:21;;;;;;;;;63.75;46.50;;;;;-143.90;98.69;76503.84;4928042;28;103537;-74
2023/12/05 10:06:50;;;;;;;;;52.67;37.33;;;;;-143.90;97.92;76493.50;4926849;28;101594;-74
2023/12/05 10:09:17;;;;;;;;;57.67;42.33;;;;;-143.90;97.56;76501.78;4929678;28;101673;-74
2023/12/05 10:11:45;;;;;;;;;54.33;45.00;;;;;-143.90;96.73;76493.50;4931901;28;101856;-74
2023/12/05 10:14:11;;;;;;;;;57.67;45.00;;;;;-143.90;97.24;76487.31;4929910;28;103496;-73
2023/12/05 10:16:39;;;;;;;;;66.67;50.00;;;;;-143.90;96.79;76510.06;4929351;28;101686;-74
2023/12/05 10:19:09;;;;;;;;;68.00;48.33;;;;;-143.90;97.25;76507.97;4928915;28;101969;-74
2023/12/05 10:21:39;;;;;;;;;66.67;49.00;;;;;-143.90;97.16;76512.13;4929755;28;101491;-74
2023/12/05 10:24:06;;;;;;;;;63.67;48.00;;;;;-143.90;98.01;76512.13;4926789;28;103465;-74
2023/12/05 10:26:43;;;;;;;;;64.33;47.67;;;;;-143.90;96.38;76501.78;4929965;28;102196;-74
2023/12/05 10:29:10;;;;;;;;;36.33;34.33;;;;;-143.90;96.71;76487.31;4929172;28;101682;-74
2023/12/05 10:31:37;;;;;;;;;54.00;38.67;;;;;-143.90;97.67;76474.91;4931261;28;101828;-74
2023/12/05 10:34:05;;;;;;;;;37.00;33.67;;;;;-143.90;97.46;76460.41;4929479;28;103597;-74
2023/12/05 10:36:32;;;;;;;;;48.33;40.33;;;;;-143.90;96.87;76466.63;4929174;28;102176;-73
2023/12/05 10:38:59;;;;;;;;;47.67;39.67;;;;;-143.90;97.13;76445.94;4927353;28;101907;-74
2023/12/05 10:41:28;;;;;;;;;48.00;38.00;;;;;-143.90;97.27;76437.66;4917323;28;102414;-74
2023/12/05 10:43:55;;;;;;;;;49.33;40.67;;;;;-143.90;96.02;76437.66;4919422;28;103703;-74
2023/12/05 10:46:26;;;;;;;;;40.00;33.33;;;;;-143.90;96.15;76443.88;4929832;28;101781;-74
2023/12/05 10:48:54;;;;;;;;;62.67;49.67;;;;;-143.90;95.89;76460.41;4929237;28;101952;-74